sensor_id;sensor_type;location;lat;lon;timestamp;P1;durP1;ratioP1;P2;durP2;ratioP2
60314;SDS011;46159;42.550;21.904;2023-12-29T00:00:55;138.82;;;92.88;;
60314;SDS011;46159;42.550;21.904;2023-12-29T00:03:21;144.93;;;93.82;;
60314;SDS011;46159;42.550;21.904;2023-12-29T00:05:47;143.73;;;94.70;;
60314;SDS011;46159;42.550;21.904;2023-12-29T00:08:13;149.25;;;98.75;;
60314;SDS011;46159;42.550;21.904;2023-12-29T00:10:39;162.27;;;107.60;;
60314;SDS011;46159;42.550;21.904;2023-12-29T00:13:05;166.75;;;107.75;;
60314;SDS011;46159;42.550;21.904;2023-12-29T00:15:33;160.93;;;104.15;;
60314;SDS011;46159;42.550;21.904;2023-12-29T00:17:59;166.27;;;109.57;;
60314;SDS011;46159;42.550;21.904;2023-12-29T00:20:25;143.13;;;93.57;;
60314;SDS011;46159;42.550;21.904;2023-12-29T00:22:51;150.45;;;97.50;;
60314;SDS011;46159;42.550;21.904;2023-12-29T00:25:19;146.65;;;99.40;;
60314;SDS011;46159;42.550;21.904;2023-12-29T00:27:45;156.27;;;106.10;;
60314;SDS011;46159;42.550;21.904;2023-12-29T00:30:11;161.02;;;112.25;;
60314;SDS011;46159;42.550;21.904;2023-12-29T00:32:37;162.68;;;113.50;;
60314;SDS011;46159;42.550;21.904;2023-12-29T00:35:04;152.52;;;103.60;;
60314;SDS011;46159;42.550;21.904;2023-12-29T00:37:30;168.20;;;108.85;;
60314;SDS011;46159;42.550;21.904;2023-12-29T00:39:56;159.27;;;111.25;;
60314;SDS011;46159;42.550;21.904;2023-12-29T00:42:22;157.02;;;105.18;;
60314;SDS011;46159;42.550;21.904;2023-12-29T00:44:49;168.77;;;110.65;;
60314;SDS011;46159;42.550;21.904;2023-12-29T00:47:15;166.68;;;114.32;;
60314;SDS011;46159;42.550;21.904;2023-12-29T00:49:44;196.38;;;123.85;;
60314;SDS011;46159;42.550;21.904;2023-12-29T00:52:10;244.32;;;150.80;;
60314;SDS011;46159;42.550;21.904;2023-12-29T00:54:36;224.45;;;137.38;;
60314;SDS011;46159;42.550;21.904;2023-12-29T00:57:02;231.70;;;146.30;;
60314;SDS011;46159;42.550;21.904;2023-12-29T00:59:29;250.77;;;156.98;;
60314;SDS011;46159;42.550;21.904;2023-12-29T01:01:56;247.95;;;156.65;;
60314;SDS011;46159;42.550;21.904;2023-12-29T01:04:22;220.98;;;138.77;;
60314;SDS011;46159;42.550;21.904;2023-12-29T01:06:48;234.00;;;148.20;;
60314;SDS011;46159;42.550;21.904;2023-12-29T01:09:14;228.50;;;147.07;;
60314;SDS011;46159;42.550;21.904;2023-12-29T01:11:40;246.98;;;155.25;;
60314;SDS011;46159;42.550;21.904;2023-12-29T01:14:06;267.70;;;169.20;;
60314;SDS011;46159;42.550;21.904;2023-12-29T01:16:33;272.42;;;173.23;;
60314;SDS011;46159;42.550;21.904;2023-12-29T01:19:00;261.80;;;161.30;;
60314;SDS011;46159;42.550;21.904;2023-12-29T01:21:26;245.70;;;158.18;;
60314;SDS011;46159;42.550;21.904;2023-12-29T01:23:52;235.50;;;153.10;;
60314;SDS011;46159;42.550;21.904;2023-12-29T01:26:18;232.07;;;151.95;;
60314;SDS011;46159;42.550;21.904;2023-12-29T01:28:44;187.38;;;123.38;;
60314;SDS011;46159;42.550;21.904;2023-12-29T01:31:10;226.98;;;143.13;;
60314;SDS011;46159;42.550;21.904;2023-12-29T01:33:38;214.82;;;138.07;;
60314;SDS011;46159;42.550;21.904;2023-12-29T01:36:04;207.35;;;134.05;;
60314;SDS011;46159;42.550;21.904;2023-12-29T01:38:31;200.50;;;126.63;;
60314;SDS011;46159;42.550;21.904;2023-12-29T01:40:59;182.38;;;117.97;;
60314;SDS011;46159;42.550;21.904;2023-12-29T01:43:26;180.48;;;119.00;;
60314;SDS011;46159;42.550;21.904;2023-12-29T01:45:56;178.93;;;108.97;;
60314;SDS011;46159;42.550;21.904;2023-12-29T01:48:23;167.40;;;102.70;;
60314;SDS011;46159;42.550;21.904;2023-12-29T01:50:50;167.80;;;100.30;;
60314;SDS011;46159;42.550;21.904;2023-12-29T01:53:16;171.25;;;104.53;;
60314;SDS011;46159;42.550;21.904;2023-12-29T01:55:43;166.23;;;95.90;;
60314;SDS011;46159;42.550;21.904;2023-12-29T01:58:12;148.80;;;87.22;;
60314;SDS011;46159;42.550;21.904;2023-12-29T02:00:41;170.35;;;96.28;;
60314;SDS011;46159;42.550;21.904;2023-12-29T02:03:19;197.52;;;89.55;;
60314;SDS011;46159;42.550;21.904;2023-12-29T02:05:46;299.00;;;80.83;;
60314;SDS011;46159;42.550;21.904;2023-12-29T02:08:15;180.27;;;81.63;;
60314;SDS011;46159;42.550;21.904;2023-12-29T02:10:54;237.18;;;98.47;;
60314;SDS011;46159;42.550;21.904;2023-12-29T02:13:57;243.73;;;94.28;;
60314;SDS011;46159;42.550;21.904;2023-12-29T02:19:46;191.27;;;95.07;;
60314;SDS011;46159;42.550;21.904;2023-12-29T02:22:14;313.13;;;116.72;;
60314;SDS011;46159;42.550;21.904;2023-12-29T02:24:58;221.88;;;101.20;;
60314;SDS011;46159;42.550;21.904;2023-12-29T02:27:38;219.52;;;93.43;;
60314;SDS011;46159;42.550;21.904;2023-12-29T02:32:44;229.45;;;95.55;;
60314;SDS011;46159;42.550;21.904;2023-12-29T02:35:22;301.10;;;107.93;;
60314;SDS011;46159;42.550;21.904;2023-12-29T02:37:48;217.70;;;89.38;;
60314;SDS011;46159;42.550;21.904;2023-12-29T02:40:19;191.05;;;65.70;;
60314;SDS011;46159;42.550;21.904;2023-12-29T02:42:48;236.98;;;74.82;;
60314;SDS011;46159;42.550;21.904;2023-12-29T02:45:15;319.63;;;91.28;;
60314;SDS011;46159;42.550;21.904;2023-12-29T02:47:42;358.08;;;103.90;;
60314;SDS011;46159;42.550;21.904;2023-12-29T02:50:08;362.80;;;114.70;;
60314;SDS011;46159;42.550;21.904;2023-12-29T02:52:34;313.85;;;109.45;;
60314;SDS011;46159;42.550;21.904;2023-12-29T02:55:00;258.48;;;99.88;;
60314;SDS011;46159;42.550;21.904;2023-12-29T02:57:26;370.42;;;113.03;;
60314;SDS011;46159;42.550;21.904;2023-12-29T02:59:53;306.60;;;102.15;;
60314;SDS011;46159;42.550;21.904;2023-12-29T03:02:19;243.68;;;96.57;;
60314;SDS011;46159;42.550;21.904;2023-12-29T03:04:45;208.90;;;88.53;;
60314;SDS011;46159;42.550;21.904;2023-12-29T03:07:11;246.80;;;94.85;;
60314;SDS011;46159;42.550;21.904;2023-12-29T03:09:37;377.38;;;117.78;;
60314;SDS011;46159;42.550;21.904;2023-12-29T03:12:03;371.58;;;167.52;;
60314;SDS011;46159;42.550;21.904;2023-12-29T03:14:30;364.48;;;131.82;;
60314;SDS011;46159;42.550;21.904;2023-12-29T03:16:56;347.08;;;151.55;;
60314;SDS011;46159;42.550;21.904;2023-12-29T03:19:22;229.15;;;122.35;;
60314;SDS011;46159;42.550;21.904;2023-12-29T03:21:48;214.50;;;121.50;;
60314;SDS011;46159;42.550;21.904;2023-12-29T03:24:15;227.40;;;124.22;;
60314;SDS011;46159;42.550;21.904;2023-12-29T03:26:41;215.75;;;122.35;;
60314;SDS011;46159;42.550;21.904;2023-12-29T03:29:07;215.95;;;125.07;;
60314;SDS011;46159;42.550;21.904;2023-12-29T03:31:33;215.45;;;127.88;;
60314;SDS011;46159;42.550;21.904;2023-12-29T03:33:59;189.55;;;112.10;;
60314;SDS011;46159;42.550;21.904;2023-12-29T03:36:25;185.65;;;110.30;;
60314;SDS011;46159;42.550;21.904;2023-12-29T03:38:51;163.52;;;97.80;;
60314;SDS011;46159;42.550;21.904;2023-12-29T03:41:17;164.88;;;94.50;;
60314;SDS011;46159;42.550;21.904;2023-12-29T03:43:44;142.77;;;88.95;;
60314;SDS011;46159;42.550;21.904;2023-12-29T03:46:17;162.25;;;93.50;;
60314;SDS011;46159;42.550;21.904;2023-12-29T03:48:43;161.23;;;91.45;;
60314;SDS011;46159;42.550;21.904;2023-12-29T03:51:09;171.60;;;87.20;;
60314;SDS011;46159;42.550;21.904;2023-12-29T03:53:35;181.77;;;89.13;;
60314;SDS011;46159;42.550;21.904;2023-12-29T03:56:05;202.27;;;100.88;;
60314;SDS011;46159;42.550;21.904;2023-12-29T03:58:31;206.40;;;94.07;;
60314;SDS011;46159;42.550;21.904;2023-12-29T04:00:57;195.13;;;90.75;;
60314;SDS011;46159;42.550;21.904;2023-12-29T04:03:23;206.65;;;82.97;;
60314;SDS011;46159;42.550;21.904;2023-12-29T04:05:50;184.88;;;82.53;;
60314;SDS011;46159;42.550;21.904;2023-12-29T04:08:16;240.57;;;91.57;;
60314;SDS011;46159;42.550;21.904;2023-12-29T04:10:42;242.25;;;82.07;;
60314;SDS011;46159;42.550;21.904;2023-12-29T04:13:08;264.83;;;88.25;;
60314;SDS011;46159;42.550;21.904;2023-12-29T04:15:34;164.55;;;77.82;;
60314;SDS011;46159;42.550;21.904;2023-12-29T04:18:00;129.75;;;70.47;;
60314;SDS011;46159;42.550;21.904;2023-12-29T04:20:26;130.77;;;76.38;;
60314;SDS011;46159;42.550;21.904;2023-12-29T04:22:52;152.80;;;82.95;;
60314;SDS011;46159;42.550;21.904;2023-12-29T04:25:18;138.80;;;79.80;;
60314;SDS011;46159;42.550;21.904;2023-12-29T04:27:44;149.50;;;84.72;;
60314;SDS011;46159;42.550;21.904;2023-12-29T04:30:11;142.52;;;83.32;;
60314;SDS011;46159;42.550;21.904;2023-12-29T04:32:37;173.05;;;101.13;;
60314;SDS011;46159;42.550;21.904;2023-12-29T04:35:03;138.07;;;80.25;;
60314;SDS011;46159;42.550;21.904;2023-12-29T04:37:29;143.82;;;85.53;;
60314;SDS011;46159;42.550;21.904;2023-12-29T04:39:55;143.65;;;88.95;;
60314;SDS011;46159;42.550;21.904;2023-12-29T04:42:21;126.85;;;81.35;;
60314;SDS011;46159;42.550;21.904;2023-12-29T04:44:47;208.55;;;114.35;;
60314;SDS011;46159;42.550;21.904;2023-12-29T04:47:13;190.57;;;113.28;;
60314;SDS011;46159;42.550;21.904;2023-12-29T04:49:40;180.00;;;98.60;;
60314;SDS011;46159;42.550;21.904;2023-12-29T04:52:06;216.13;;;105.47;;
60314;SDS011;46159;42.550;21.904;2023-12-29T04:54:32;268.40;;;109.07;;
60314;SDS011;46159;42.550;21.904;2023-12-29T04:56:58;270.95;;;112.95;;
60314;SDS011;46159;42.550;21.904;2023-12-29T04:59:24;350.17;;;126.13;;
60314;SDS011;46159;42.550;21.904;2023-12-29T05:01:50;290.80;;;121.50;;
60314;SDS011;46159;42.550;21.904;2023-12-29T05:04:17;409.20;;;146.35;;
60314;SDS011;46159;42.550;21.904;2023-12-29T05:06:43;270.75;;;118.53;;
60314;SDS011;46159;42.550;21.904;2023-12-29T05:09:09;318.33;;;123.25;;
60314;SDS011;46159;42.550;21.904;2023-12-29T05:11:35;287.30;;;106.32;;
60314;SDS011;46159;42.550;21.904;2023-12-29T05:14:01;344.70;;;114.57;;
60314;SDS011;46159;42.550;21.904;2023-12-29T05:16:27;239.95;;;104.28;;
60314;SDS011;46159;42.550;21.904;2023-12-29T05:18:53;229.05;;;97.15;;
60314;SDS011;46159;42.550;21.904;2023-12-29T05:21:19;246.48;;;101.05;;
60314;SDS011;46159;42.550;21.904;2023-12-29T05:23:46;257.35;;;104.28;;
60314;SDS011;46159;42.550;21.904;2023-12-29T05:26:14;260.05;;;121.65;;
60314;SDS011;46159;42.550;21.904;2023-12-29T05:28:40;350.35;;;159.20;;
60314;SDS011;46159;42.550;21.904;2023-12-29T05:31:06;264.65;;;120.22;;
60314;SDS011;46159;42.550;21.904;2023-12-29T05:33:32;215.20;;;118.07;;
60314;SDS011;46159;42.550;21.904;2023-12-29T05:35:59;271.52;;;141.50;;
60314;SDS011;46159;42.550;21.904;2023-12-29T05:38:25;276.73;;;144.93;;
60314;SDS011;46159;42.550;21.904;2023-12-29T05:40:51;231.70;;;123.88;;
60314;SDS011;46159;42.550;21.904;2023-12-29T05:43:18;423.90;;;240.43;;
60314;SDS011;46159;42.550;21.904;2023-12-29T05:45:44;511.17;;;303.98;;
60314;SDS011;46159;42.550;21.904;2023-12-29T05:48:10;259.35;;;142.63;;
60314;SDS011;46159;42.550;21.904;2023-12-29T05:50:36;221.65;;;122.22;;
60314;SDS011;46159;42.550;21.904;2023-12-29T05:53:02;237.77;;;125.78;;
60314;SDS011;46159;42.550;21.904;2023-12-29T05:55:30;254.30;;;133.38;;
60314;SDS011;46159;42.550;21.904;2023-12-29T05:57:56;233.98;;;122.32;;
60314;SDS011;46159;42.550;21.904;2023-12-29T06:00:22;230.45;;;115.72;;
60314;SDS011;46159;42.550;21.904;2023-12-29T06:02:48;232.07;;;114.43;;
60314;SDS011;46159;42.550;21.904;2023-12-29T06:05:15;301.38;;;125.57;;
60314;SDS011;46159;42.550;21.904;2023-12-29T06:07:41;314.23;;;137.52;;
60314;SDS011;46159;42.550;21.904;2023-12-29T06:10:07;329.23;;;142.05;;
60314;SDS011;46159;42.550;21.904;2023-12-29T06:12:36;351.02;;;148.00;;
60314;SDS011;46159;42.550;21.904;2023-12-29T06:15:02;367.83;;;168.98;;
60314;SDS011;46159;42.550;21.904;2023-12-29T06:17:29;353.88;;;156.07;;
60314;SDS011;46159;42.550;21.904;2023-12-29T06:19:55;348.67;;;164.45;;
60314;SDS011;46159;42.550;21.904;2023-12-29T06:22:21;329.13;;;166.63;;
60314;SDS011;46159;42.550;21.904;2023-12-29T06:24:47;259.30;;;137.00;;
60314;SDS011;46159;42.550;21.904;2023-12-29T06:27:13;270.23;;;145.40;;
60314;SDS011;46159;42.550;21.904;2023-12-29T06:29:40;247.32;;;136.05;;
60314;SDS011;46159;42.550;21.904;2023-12-29T06:32:07;252.15;;;142.02;;
60314;SDS011;46159;42.550;21.904;2023-12-29T06:34:33;289.35;;;156.32;;
60314;SDS011;46159;42.550;21.904;2023-12-29T06:36:59;302.17;;;158.20;;
60314;SDS011;46159;42.550;21.904;2023-12-29T06:39:26;296.65;;;167.50;;
60314;SDS011;46159;42.550;21.904;2023-12-29T06:41:52;286.25;;;158.25;;
60314;SDS011;46159;42.550;21.904;2023-12-29T06:44:18;300.60;;;173.35;;
60314;SDS011;46159;42.550;21.904;2023-12-29T06:46:44;401.25;;;223.88;;
60314;SDS011;46159;42.550;21.904;2023-12-29T06:49:10;380.65;;;222.15;;
60314;SDS011;46159;42.550;21.904;2023-12-29T06:51:36;403.05;;;242.80;;
60314;SDS011;46159;42.550;21.904;2023-12-29T06:54:04;346.15;;;209.88;;
60314;SDS011;46159;42.550;21.904;2023-12-29T06:56:30;346.30;;;203.57;;
60314;SDS011;46159;42.550;21.904;2023-12-29T06:58:56;269.77;;;164.15;;
60314;SDS011;46159;42.550;21.904;2023-12-29T07:01:22;271.70;;;158.82;;
60314;SDS011;46159;42.550;21.904;2023-12-29T07:03:48;298.42;;;169.68;;
60314;SDS011;46159;42.550;21.904;2023-12-29T07:06:14;305.73;;;173.90;;
60314;SDS011;46159;42.550;21.904;2023-12-29T07:08:40;296.60;;;177.48;;
60314;SDS011;46159;42.550;21.904;2023-12-29T07:11:10;342.42;;;189.10;;
60314;SDS011;46159;42.550;21.904;2023-12-29T07:13:39;351.92;;;190.05;;
60314;SDS011;46159;42.550;21.904;2023-12-29T07:16:06;438.70;;;210.77;;
60314;SDS011;46159;42.550;21.904;2023-12-29T07:18:32;300.85;;;152.73;;
60314;SDS011;46159;42.550;21.904;2023-12-29T07:20:58;253.13;;;115.63;;
60314;SDS011;46159;42.550;21.904;2023-12-29T07:23:24;283.92;;;124.32;;
60314;SDS011;46159;42.550;21.904;2023-12-29T07:25:50;230.95;;;113.63;;
60314;SDS011;46159;42.550;21.904;2023-12-29T07:28:16;271.08;;;114.88;;
60314;SDS011;46159;42.550;21.904;2023-12-29T07:30:42;213.45;;;102.30;;
60314;SDS011;46159;42.550;21.904;2023-12-29T07:33:09;253.68;;;105.15;;
60314;SDS011;46159;42.550;21.904;2023-12-29T07:35:35;212.05;;;114.05;;
60314;SDS011;46159;42.550;21.904;2023-12-29T07:38:02;220.50;;;105.00;;
60314;SDS011;46159;42.550;21.904;2023-12-29T07:40:29;276.67;;;118.10;;
60314;SDS011;46159;42.550;21.904;2023-12-29T07:42:55;297.65;;;120.93;;
60314;SDS011;46159;42.550;21.904;2023-12-29T07:45:21;259.52;;;124.03;;
60314;SDS011;46159;42.550;21.904;2023-12-29T07:47:47;267.98;;;122.28;;
60314;SDS011;46159;42.550;21.904;2023-12-29T07:50:13;221.27;;;112.18;;
60314;SDS011;46159;42.550;21.904;2023-12-29T07:52:39;308.92;;;127.32;;
60314;SDS011;46159;42.550;21.904;2023-12-29T07:55:05;280.67;;;118.15;;
60314;SDS011;46159;42.550;21.904;2023-12-29T07:57:31;230.73;;;116.85;;
60314;SDS011;46159;42.550;21.904;2023-12-29T07:59:57;220.98;;;114.13;;
60314;SDS011;46159;42.550;21.904;2023-12-29T08:02:23;273.20;;;110.05;;
60314;SDS011;46159;42.550;21.904;2023-12-29T08:04:49;232.90;;;113.13;;
60314;SDS011;46159;42.550;21.904;2023-12-29T08:07:16;210.48;;;108.05;;
60314;SDS011;46159;42.550;21.904;2023-12-29T08:09:43;285.05;;;112.30;;
60314;SDS011;46159;42.550;21.904;2023-12-29T08:12:09;228.70;;;101.13;;
60314;SDS011;46159;42.550;21.904;2023-12-29T08:14:35;350.02;;;112.38;;
60314;SDS011;46159;42.550;21.904;2023-12-29T08:17:01;228.32;;;107.85;;
60314;SDS011;46159;42.550;21.904;2023-12-29T08:19:27;255.70;;;113.93;;
60314;SDS011;46159;42.550;21.904;2023-12-29T08:21:54;278.42;;;110.95;;
60314;SDS011;46159;42.550;21.904;2023-12-29T08:24:20;282.75;;;114.32;;
60314;SDS011;46159;42.550;21.904;2023-12-29T08:26:46;245.23;;;110.95;;
60314;SDS011;46159;42.550;21.904;2023-12-29T08:29:14;199.57;;;107.00;;
60314;SDS011;46159;42.550;21.904;2023-12-29T08:31:40;194.35;;;102.38;;
60314;SDS011;46159;42.550;21.904;2023-12-29T08:34:07;211.40;;;100.18;;
60314;SDS011;46159;42.550;21.904;2023-12-29T08:36:33;164.50;;;91.28;;
60314;SDS011;46159;42.550;21.904;2023-12-29T08:39:00;185.73;;;100.50;;
60314;SDS011;46159;42.550;21.904;2023-12-29T08:41:26;169.95;;;102.13;;
60314;SDS011;46159;42.550;21.904;2023-12-29T08:43:52;170.18;;;94.75;;
60314;SDS011;46159;42.550;21.904;2023-12-29T08:46:19;163.45;;;97.85;;
60314;SDS011;46159;42.550;21.904;2023-12-29T08:48:45;178.35;;;106.40;;
60314;SDS011;46159;42.550;21.904;2023-12-29T08:51:11;151.32;;;95.88;;
60314;SDS011;46159;42.550;21.904;2023-12-29T08:53:38;153.05;;;94.57;;
60314;SDS011;46159;42.550;21.904;2023-12-29T08:56:04;161.88;;;95.50;;
60314;SDS011;46159;42.550;21.904;2023-12-29T08:58:30;159.68;;;97.03;;
60314;SDS011;46159;42.550;21.904;2023-12-29T09:00:56;154.50;;;101.05;;
60314;SDS011;46159;42.550;21.904;2023-12-29T09:03:23;144.20;;;93.88;;
60314;SDS011;46159;42.550;21.904;2023-12-29T09:05:49;141.13;;;95.78;;
60314;SDS011;46159;42.550;21.904;2023-12-29T09:08:15;146.52;;;101.60;;
60314;SDS011;46159;42.550;21.904;2023-12-29T09:10:41;149.20;;;95.93;;
60314;SDS011;46159;42.550;21.904;2023-12-29T09:13:09;146.48;;;95.22;;
60314;SDS011;46159;42.550;21.904;2023-12-29T09:15:35;146.52;;;97.50;;
60314;SDS011;46159;42.550;21.904;2023-12-29T09:18:01;141.43;;;96.63;;
60314;SDS011;46159;42.550;21.904;2023-12-29T09:20:27;151.25;;;99.07;;
60314;SDS011;46159;42.550;21.904;2023-12-29T09:22:53;147.32;;;101.90;;
60314;SDS011;46159;42.550;21.904;2023-12-29T09:25:20;153.60;;;103.63;;
60314;SDS011;46159;42.550;21.904;2023-12-29T09:27:46;154.80;;;102.47;;
60314;SDS011;46159;42.550;21.904;2023-12-29T09:30:14;150.88;;;105.30;;
60314;SDS011;46159;42.550;21.904;2023-12-29T09:32:40;135.52;;;97.78;;
60314;SDS011;46159;42.550;21.904;2023-12-29T09:35:06;123.53;;;86.30;;
60314;SDS011;46159;42.550;21.904;2023-12-29T09:37:33;117.32;;;82.45;;
60314;SDS011;46159;42.550;21.904;2023-12-29T09:39:59;159.25;;;112.55;;
60314;SDS011;46159;42.550;21.904;2023-12-29T09:42:25;158.70;;;112.72;;
60314;SDS011;46159;42.550;21.904;2023-12-29T09:44:54;152.52;;;110.28;;
60314;SDS011;46159;42.550;21.904;2023-12-29T09:47:21;170.02;;;116.57;;
60314;SDS011;46159;42.550;21.904;2023-12-29T09:49:51;158.00;;;105.72;;
60314;SDS011;46159;42.550;21.904;2023-12-29T09:52:21;147.35;;;103.75;;
60314;SDS011;46159;42.550;21.904;2023-12-29T09:54:48;159.50;;;106.82;;
60314;SDS011;46159;42.550;21.904;2023-12-29T09:57:16;156.07;;;100.50;;
60314;SDS011;46159;42.550;21.904;2023-12-29T09:59:43;189.40;;;128.20;;
60314;SDS011;46159;42.550;21.904;2023-12-29T10:02:14;179.85;;;126.47;;
60314;SDS011;46159;42.550;21.904;2023-12-29T10:04:43;220.30;;;136.38;;
60314;SDS011;46159;42.550;21.904;2023-12-29T10:07:10;192.95;;;129.88;;
60314;SDS011;46159;42.550;21.904;2023-12-29T10:09:39;212.38;;;143.52;;
60314;SDS011;46159;42.550;21.904;2023-12-29T10:12:08;251.80;;;162.57;;
60314;SDS011;46159;42.550;21.904;2023-12-29T10:14:57;245.65;;;166.57;;
60314;SDS011;46159;42.550;21.904;2023-12-29T10:17:29;242.82;;;168.45;;
60314;SDS011;46159;42.550;21.904;2023-12-29T10:19:58;242.90;;;171.85;;
60314;SDS011;46159;42.550;21.904;2023-12-29T10:22:33;257.02;;;178.93;;
60314;SDS011;46159;42.550;21.904;2023-12-29T10:25:04;249.50;;;175.73;;
60314;SDS011;46159;42.550;21.904;2023-12-29T10:27:30;245.80;;;167.30;;
60314;SDS011;46159;42.550;21.904;2023-12-29T10:29:56;221.35;;;161.23;;
60314;SDS011;46159;42.550;21.904;2023-12-29T10:32:23;204.85;;;142.63;;
60314;SDS011;46159;42.550;21.904;2023-12-29T10:34:49;106.32;;;70.57;;
60314;SDS011;46159;42.550;21.904;2023-12-29T10:37:16;99.22;;;60.08;;
60314;SDS011;46159;42.550;21.904;2023-12-29T10:40:06;90.10;;;60.17;;
60314;SDS011;46159;42.550;21.904;2023-12-29T10:42:32;89.03;;;60.17;;
60314;SDS011;46159;42.550;21.904;2023-12-29T10:45:08;86.93;;;56.67;;
60314;SDS011;46159;42.550;21.904;2023-12-29T10:47:35;66.38;;;46.45;;
60314;SDS011;46159;42.550;21.904;2023-12-29T10:50:02;73.30;;;44.80;;
60314;SDS011;46159;42.550;21.904;2023-12-29T10:52:32;67.65;;;41.72;;
60314;SDS011;46159;42.550;21.904;2023-12-29T10:55:05;59.42;;;40.28;;
60314;SDS011;46159;42.550;21.904;2023-12-29T10:57:32;84.45;;;48.40;;
60314;SDS011;46159;42.550;21.904;2023-12-29T10:59:58;72.78;;;45.97;;
60314;SDS011;46159;42.550;21.904;2023-12-29T11:02:28;95.78;;;64.00;;
60314;SDS011;46159;42.550;21.904;2023-12-29T11:05:04;75.70;;;46.67;;
60314;SDS011;46159;42.550;21.904;2023-12-29T11:07:40;80.32;;;45.72;;
60314;SDS011;46159;42.550;21.904;2023-12-29T11:10:07;58.17;;;41.88;;
60314;SDS011;46159;42.550;21.904;2023-12-29T11:12:34;70.85;;;45.63;;
60314;SDS011;46159;42.550;21.904;2023-12-29T11:15:01;41.35;;;27.80;;
60314;SDS011;46159;42.550;21.904;2023-12-29T11:17:29;39.92;;;27.92;;
60314;SDS011;46159;42.550;21.904;2023-12-29T11:19:55;44.30;;;28.33;;
60314;SDS011;46159;42.550;21.904;2023-12-29T11:22:23;45.47;;;27.75;;
60314;SDS011;46159;42.550;21.904;2023-12-29T11:24:50;51.72;;;31.35;;
60314;SDS011;46159;42.550;21.904;2023-12-29T11:27:16;48.28;;;34.88;;
60314;SDS011;46159;42.550;21.904;2023-12-29T11:29:42;70.30;;;38.80;;
60314;SDS011;46159;42.550;21.904;2023-12-29T11:32:12;55.83;;;37.72;;
60314;SDS011;46159;42.550;21.904;2023-12-29T11:34:48;57.78;;;39.10;;
60314;SDS011;46159;42.550;21.904;2023-12-29T11:40:16;64.70;;;40.83;;
60314;SDS011;46159;42.550;21.904;2023-12-29T11:42:45;54.67;;;37.38;;
60314;SDS011;46159;42.550;21.904;2023-12-29T11:45:29;49.22;;;34.10;;
60314;SDS011;46159;42.550;21.904;2023-12-29T11:48:04;54.97;;;38.75;;
60314;SDS011;46159;42.550;21.904;2023-12-29T11:50:32;53.92;;;37.83;;
60314;SDS011;46159;42.550;21.904;2023-12-29T11:52:58;56.97;;;33.00;;
60314;SDS011;46159;42.550;21.904;2023-12-29T11:55:29;50.47;;;35.33;;
60314;SDS011;46159;42.550;21.904;2023-12-29T11:57:55;51.33;;;31.88;;
60314;SDS011;46159;42.550;21.904;2023-12-29T12:00:43;41.10;;;28.90;;
60314;SDS011;46159;42.550;21.904;2023-12-29T12:03:24;21.25;;;11.25;;
60314;SDS011;46159;42.550;21.904;2023-12-29T12:05:51;29.98;;;16.27;;
60314;SDS011;46159;42.550;21.904;2023-12-29T12:10:53;44.80;;;24.85;;
60314;SDS011;46159;42.550;21.904;2023-12-29T12:16:04;30.38;;;19.13;;
60314;SDS011;46159;42.550;21.904;2023-12-29T12:18:30;35.45;;;19.27;;
60314;SDS011;46159;42.550;21.904;2023-12-29T12:20:57;42.72;;;21.20;;
60314;SDS011;46159;42.550;21.904;2023-12-29T12:23:24;30.10;;;16.52;;
60314;SDS011;46159;42.550;21.904;2023-12-29T12:25:51;36.47;;;17.70;;
60314;SDS011;46159;42.550;21.904;2023-12-29T12:28:24;38.17;;;20.27;;
60314;SDS011;46159;42.550;21.904;2023-12-29T12:30:51;38.58;;;20.52;;
60314;SDS011;46159;42.550;21.904;2023-12-29T12:33:18;38.85;;;26.13;;
60314;SDS011;46159;42.550;21.904;2023-12-29T12:35:45;40.80;;;26.92;;
60314;SDS011;46159;42.550;21.904;2023-12-29T12:38:15;51.90;;;27.30;;
60314;SDS011;46159;42.550;21.904;2023-12-29T12:40:49;40.78;;;28.70;;
60314;SDS011;46159;42.550;21.904;2023-12-29T12:43:22;41.20;;;25.83;;
60314;SDS011;46159;42.550;21.904;2023-12-29T12:46:00;43.65;;;27.10;;
60314;SDS011;46159;42.550;21.904;2023-12-29T12:48:39;44.45;;;27.45;;
60314;SDS011;46159;42.550;21.904;2023-12-29T12:51:06;33.92;;;20.67;;
60314;SDS011;46159;42.550;21.904;2023-12-29T12:53:32;38.47;;;24.05;;
60314;SDS011;46159;42.550;21.904;2023-12-29T12:55:59;39.53;;;22.15;;
60314;SDS011;46159;42.550;21.904;2023-12-29T12:58:25;32.90;;;18.80;;
60314;SDS011;46159;42.550;21.904;2023-12-29T13:00:53;33.83;;;22.05;;
60314;SDS011;46159;42.550;21.904;2023-12-29T13:03:24;35.47;;;18.48;;
60314;SDS011;46159;42.550;21.904;2023-12-29T13:05:50;33.33;;;16.42;;
60314;SDS011;46159;42.550;21.904;2023-12-29T13:08:16;27.17;;;16.48;;
60314;SDS011;46159;42.550;21.904;2023-12-29T13:10:43;22.35;;;15.23;;
60314;SDS011;46159;42.550;21.904;2023-12-29T13:13:10;28.73;;;15.20;;
60314;SDS011;46159;42.550;21.904;2023-12-29T13:15:45;27.40;;;16.52;;
60314;SDS011;46159;42.550;21.904;2023-12-29T13:18:11;33.58;;;16.73;;
60314;SDS011;46159;42.550;21.904;2023-12-29T13:20:46;23.35;;;13.20;;
60314;SDS011;46159;42.550;21.904;2023-12-29T13:23:13;24.55;;;13.30;;
60314;SDS011;46159;42.550;21.904;2023-12-29T13:25:39;22.30;;;13.45;;
60314;SDS011;46159;42.550;21.904;2023-12-29T13:28:08;31.35;;;14.05;;
60314;SDS011;46159;42.550;21.904;2023-12-29T13:30:35;22.25;;;13.52;;
60314;SDS011;46159;42.550;21.904;2023-12-29T13:33:05;30.85;;;15.93;;
60314;SDS011;46159;42.550;21.904;2023-12-29T13:35:37;28.63;;;14.90;;
60314;SDS011;46159;42.550;21.904;2023-12-29T13:43:18;23.58;;;14.23;;
60314;SDS011;46159;42.550;21.904;2023-12-29T13:45:45;25.70;;;16.15;;
60314;SDS011;46159;42.550;21.904;2023-12-29T13:48:11;26.92;;;15.43;;
60314;SDS011;46159;42.550;21.904;2023-12-29T13:50:39;41.53;;;17.70;;
60314;SDS011;46159;42.550;21.904;2023-12-29T13:53:06;40.42;;;18.33;;
60314;SDS011;46159;42.550;21.904;2023-12-29T13:55:33;30.00;;;17.42;;
60314;SDS011;46159;42.550;21.904;2023-12-29T13:57:59;43.13;;;17.30;;
60314;SDS011;46159;42.550;21.904;2023-12-29T14:00:26;78.25;;;20.27;;
60314;SDS011;46159;42.550;21.904;2023-12-29T14:10:32;67.38;;;33.25;;
60314;SDS011;46159;42.550;21.904;2023-12-29T14:13:05;51.40;;;22.08;;
60314;SDS011;46159;42.550;21.904;2023-12-29T14:15:35;54.08;;;34.63;;
60314;SDS011;46159;42.550;21.904;2023-12-29T14:18:02;41.38;;;24.92;;
60314;SDS011;46159;42.550;21.904;2023-12-29T14:20:33;55.53;;;38.88;;
60314;SDS011;46159;42.550;21.904;2023-12-29T14:23:03;67.32;;;44.95;;